createdAt,value
2018-03-25T00:00:30.360Z,97.20
2018-03-25T00:02:57.987Z,96.60
2018-03-25T00:05:25.621Z,96.90
2018-03-25T00:07:53.970Z,97.50
2018-03-25T00:10:21.690Z,97.50
2018-03-25T00:12:49.346Z,97.50
2018-03-25T00:15:16.917Z,97.60
2018-03-25T00:17:44.501Z,97.40
2018-03-25T00:20:12.069Z,97.50
2018-03-25T00:22:39.630Z,97.80
2018-03-25T00:25:07.202Z,97.80
2018-03-25T00:27:35.719Z,97.20
2018-03-25T00:30:03.312Z,97.20
2018-03-25T00:32:30.914Z,97.80
2018-03-25T00:34:58.465Z,97.80
2018-03-25T00:37:26.247Z,97.70
2018-03-25T00:39:54.601Z,97.80
2018-03-25T00:42:22.186Z,97.80
2018-03-25T00:44:50.517Z,98.00
2018-03-25T00:47:18.062Z,98.00
2018-03-25T00:49:45.630Z,98.40
2018-03-25T00:52:13.203Z,98.30
2018-03-25T00:54:40.777Z,98.40
2018-03-25T00:57:08.330Z,98.40
2018-03-25T00:59:35.900Z,98.70
2018-03-25T01:02:03.425Z,98.60
2018-03-25T01:04:31.661Z,98.80
2018-03-25T01:06:59.213Z,98.90
2018-03-25T01:09:27.532Z,99.00
2018-03-25T01:11:55.100Z,99.30
2018-03-25T01:14:22.692Z,99.10
2018-03-25T01:16:50.261Z,98.90
2018-03-25T01:19:17.806Z,99.10
2018-03-25T01:21:45.367Z,99.30
2018-03-25T01:24:12.941Z,99.20
2018-03-25T01:26:40.501Z,99.10
2018-03-25T01:29:08.286Z,99.20
2018-03-25T01:31:41.201Z,99.30
2018-03-25T01:34:08.744Z,99.30
2018-03-25T01:36:36.416Z,99.30
2018-03-25T01:39:03.945Z,99.40
2018-03-25T01:41:32.270Z,99.80
2018-03-25T01:43:59.872Z,99.60
2018-03-25T01:46:27.406Z,99.60
2018-03-25T01:48:55.034Z,99.60
2018-03-25T01:51:22.595Z,99.60
2018-03-25T01:53:50.250Z,99.70
2018-03-25T01:56:19.655Z,99.80
2018-03-25T01:58:47.248Z,99.80
2018-03-25T02:01:14.863Z,99.90
2018-03-25T02:03:43.202Z,99.90
2018-03-25T02:06:12.343Z,99.90
2018-03-25T02:08:41.932Z,99.90
2018-03-25T02:11:09.947Z,99.90
2018-03-25T02:13:37.583Z,99.90
2018-03-25T02:16:05.911Z,99.90
2018-03-25T02:18:33.465Z,99.90
2018-03-25T02:21:01.025Z,99.90
2018-03-25T02:23:28.581Z,99.90
2018-03-25T02:25:56.141Z,99.90
2018-03-25T02:28:24.289Z,99.90
2018-03-25T02:30:51.838Z,99.90
2018-03-25T02:33:20.158Z,99.90
2018-03-25T02:35:47.827Z,99.90
2018-03-25T02:38:15.550Z,99.90
2018-03-25T02:40:43.242Z,99.90
2018-03-25T02:43:10.782Z,99.90
2018-03-25T02:45:38.350Z,99.90
2018-03-25T02:48:06.003Z,99.90
2018-03-25T02:50:33.588Z,99.90
2018-03-25T02:53:01.150Z,99.90
2018-03-25T02:55:28.712Z,99.90
2018-03-25T02:57:56.343Z,99.90
2018-03-25T03:00:24.091Z,99.90
2018-03-25T03:02:51.634Z,99.90
2018-03-25T03:05:19.961Z,99.90
2018-03-25T03:07:47.689Z,99.90
2018-03-25T03:10:16.172Z,99.90
2018-03-25T03:12:43.753Z,99.90
2018-03-25T03:15:11.546Z,99.90
2018-03-25T03:17:39.117Z,99.90
2018-03-25T03:20:06.684Z,99.90
2018-03-25T03:22:35.030Z,99.90
2018-03-25T03:25:02.585Z,99.90
2018-03-25T03:27:30.166Z,99.90
2018-03-25T03:29:57.720Z,99.90
2018-03-25T03:32:25.396Z,99.90
2018-03-25T03:34:52.992Z,99.90
2018-03-25T03:37:21.326Z,99.90
2018-03-25T03:39:49.046Z,99.90
2018-03-25T03:42:16.601Z,99.90
2018-03-25T03:44:44.162Z,99.90
2018-03-25T03:47:11.704Z,99.90
2018-03-25T03:49:40.114Z,99.90
2018-03-25T03:52:07.695Z,99.90
2018-03-25T03:54:35.237Z,99.90
2018-03-25T03:57:02.776Z,99.90
2018-03-25T03:59:30.345Z,99.90
2018-03-25T04:01:57.901Z,99.90
2018-03-25T04:04:25.510Z,99.90
2018-03-25T04:06:53.056Z,99.90
2018-03-25T04:09:20.618Z,99.90
2018-03-25T04:11:48.154Z,99.90
2018-03-25T04:14:16.323Z,99.90
2018-03-25T04:16:43.922Z,99.90
2018-03-25T04:19:11.662Z,99.90
2018-03-25T04:21:39.221Z,99.90
2018-03-25T04:24:06.931Z,99.90
2018-03-25T04:26:34.520Z,99.90
2018-03-25T04:29:03.131Z,99.90
2018-03-25T04:31:30.686Z,99.90
2018-03-25T04:33:58.254Z,99.90
2018-03-25T04:36:25.821Z,99.90
2018-03-25T04:38:53.369Z,99.90
2018-03-25T04:41:20.941Z,99.90
2018-03-25T04:43:48.593Z,99.90
2018-03-25T04:46:16.168Z,99.90
2018-03-25T04:48:43.724Z,99.90
2018-03-25T04:51:13.278Z,99.90
2018-03-25T04:53:41.602Z,99.90
2018-03-25T04:56:09.180Z,99.90
2018-03-25T04:58:36.733Z,99.90
2018-03-25T05:01:05.325Z,99.90
2018-03-25T05:03:32.873Z,99.90
2018-03-25T05:06:01.214Z,99.90
2018-03-25T05:08:28.776Z,99.90
2018-03-25T05:10:57.196Z,99.90
2018-03-25T05:13:24.766Z,99.90
2018-03-25T05:15:53.797Z,99.90
2018-03-25T05:18:22.718Z,99.90
2018-03-25T05:20:50.257Z,99.90
2018-03-25T05:23:17.840Z,99.90
2018-03-25T05:25:45.394Z,99.90
2018-03-25T05:28:12.980Z,99.90
2018-03-25T05:30:42.361Z,99.90
2018-03-25T05:33:12.603Z,99.90
2018-03-25T05:35:40.965Z,99.90
2018-03-25T05:38:08.518Z,99.90
2018-03-25T05:40:36.076Z,99.90
2018-03-25T05:43:03.644Z,99.90
2018-03-25T05:45:31.193Z,99.90
2018-03-25T05:47:58.778Z,99.90
2018-03-25T05:50:26.348Z,99.90
2018-03-25T05:52:53.931Z,99.90
2018-03-25T05:55:21.504Z,99.90
2018-03-25T05:57:49.858Z,99.90
2018-03-25T06:00:18.219Z,99.90
2018-03-25T06:02:45.758Z,99.90
2018-03-25T06:05:13.726Z,99.90
2018-03-25T06:07:41.288Z,99.90
2018-03-25T06:10:09.025Z,99.90
2018-03-25T06:12:37.363Z,99.90
2018-03-25T06:15:04.982Z,99.90
2018-03-25T06:17:32.557Z,99.90
2018-03-25T06:20:00.132Z,99.90
2018-03-25T06:22:27.687Z,99.90
2018-03-25T06:24:55.257Z,99.90
2018-03-25T06:27:22.817Z,99.90
2018-03-25T06:29:50.521Z,99.90
2018-03-25T06:32:18.869Z,99.90
2018-03-25T06:34:46.457Z,99.90
2018-03-25T06:37:14.797Z,99.90
2018-03-25T06:39:42.473Z,99.90
2018-03-25T06:42:10.057Z,99.90
2018-03-25T06:44:38.392Z,99.90
2018-03-25T06:47:06.800Z,99.90
2018-03-25T06:49:34.345Z,99.90
2018-03-25T06:52:01.931Z,99.90
2018-03-25T06:54:29.511Z,99.90
2018-03-25T06:56:57.949Z,99.90
2018-03-25T06:59:25.507Z,99.90
2018-03-25T07:01:53.081Z,99.90
2018-03-25T07:04:20.664Z,99.90
2018-03-25T07:06:48.992Z,99.00
2018-03-25T07:09:16.561Z,99.00
2018-03-25T07:11:44.117Z,99.00
2018-03-25T07:14:11.719Z,99.30
2018-03-25T07:16:40.045Z,99.10
2018-03-25T07:19:07.606Z,98.90
2018-03-25T07:21:35.146Z,98.50
2018-03-25T07:24:02.713Z,98.50
2018-03-25T07:26:30.275Z,98.90
2018-03-25T07:28:57.822Z,98.70
2018-03-25T07:31:26.158Z,97.80
2018-03-25T07:33:53.895Z,97.50
2018-03-25T07:36:22.298Z,97.40
2018-03-25T07:38:50.037Z,97.80
2018-03-25T07:41:17.574Z,96.90
2018-03-25T07:43:45.261Z,96.80
2018-03-25T07:46:12.818Z,96.40
2018-03-25T07:48:40.400Z,96.50
2018-03-25T07:51:07.954Z,96.30
2018-03-25T07:53:35.512Z,96.40
2018-03-25T07:56:03.065Z,96.00
2018-03-25T07:58:30.638Z,95.60
2018-03-25T08:00:58.213Z,95.30
2018-03-25T08:03:26.554Z,94.60
2018-03-25T08:05:54.114Z,94.70
2018-03-25T08:08:21.681Z,94.60
2018-03-25T08:10:49.241Z,94.30
2018-03-25T08:13:16.809Z,93.50
2018-03-25T08:15:44.391Z,93.50
2018-03-25T08:18:12.736Z,93.20
2018-03-25T08:20:40.348Z,93.10
2018-03-25T08:23:08.674Z,92.80
2018-03-25T08:25:36.271Z,92.80
2018-03-25T08:28:03.871Z,92.30
2018-03-25T08:30:31.433Z,92.00
2018-03-25T08:32:59.000Z,92.00
2018-03-25T08:35:26.576Z,91.40
2018-03-25T08:37:54.158Z,91.40
2018-03-25T08:40:21.714Z,91.60
2018-03-25T08:42:49.413Z,91.20
2018-03-25T08:45:17.767Z,90.60
2018-03-25T08:47:45.379Z,90.60
2018-03-25T08:50:12.934Z,90.40
2018-03-25T08:52:40.495Z,89.10
2018-03-25T08:55:08.092Z,89.00
2018-03-25T08:57:35.645Z,89.10
2018-03-25T09:00:03.189Z,88.00
2018-03-25T09:02:30.764Z,87.70
2018-03-25T09:04:58.352Z,86.10
2018-03-25T09:07:25.910Z,86.90
2018-03-25T09:09:54.387Z,87.70
2018-03-25T09:12:21.933Z,86.80
2018-03-25T09:14:49.500Z,85.50
2018-03-25T09:17:17.084Z,84.30
2018-03-25T09:19:45.414Z,82.70
2018-03-25T09:22:13.096Z,82.70
2018-03-25T09:24:40.664Z,83.40
2018-03-25T09:27:08.227Z,83.60
2018-03-25T09:29:35.786Z,83.50
2018-03-25T09:32:03.362Z,83.30
2018-03-25T09:34:30.944Z,83.70
2018-03-25T09:36:58.539Z,82.90
2018-03-25T09:39:26.077Z,81.30
2018-03-25T09:41:53.673Z,80.30
2018-03-25T09:44:21.226Z,80.70
2018-03-25T09:46:48.798Z,81.20
2018-03-25T09:49:16.358Z,80.20
2018-03-25T09:51:43.956Z,81.10
2018-03-25T09:54:12.361Z,79.20
2018-03-25T09:56:39.974Z,79.20
2018-03-25T09:59:07.578Z,77.80
2018-03-25T10:01:35.147Z,77.80
2018-03-25T10:04:02.720Z,77.90
2018-03-25T10:06:30.359Z,77.50
2018-03-25T10:08:57.920Z,75.30
2018-03-25T10:11:25.490Z,76.10
2018-03-25T10:13:53.082Z,73.70
2018-03-25T10:16:20.704Z,73.30
2018-03-25T10:18:48.262Z,74.20
2018-03-25T10:21:15.862Z,72.60
2018-03-25T10:23:43.431Z,68.80
2018-03-25T10:26:12.685Z,69.30
2018-03-25T10:28:40.290Z,69.20
2018-03-25T10:31:07.907Z,65.70
2018-03-25T10:33:35.510Z,68.70
2018-03-25T10:36:03.342Z,67.50
2018-03-25T10:38:30.893Z,67.30
2018-03-25T10:40:58.535Z,64.30
2018-03-25T10:43:26.052Z,64.70
2018-03-25T10:45:53.624Z,64.90
2018-03-25T10:48:21.246Z,66.80
2018-03-25T10:50:48.822Z,66.20
2018-03-25T10:53:16.404Z,63.10
2018-03-25T10:55:44.169Z,63.80
2018-03-25T10:58:11.742Z,64.90
2018-03-25T11:00:40.195Z,63.80
2018-03-25T11:03:07.773Z,63.80
2018-03-25T11:05:35.342Z,64.50
2018-03-25T11:08:03.685Z,62.80
2018-03-25T11:10:31.257Z,62.90
2018-03-25T11:12:58.837Z,63.00
2018-03-25T11:15:27.188Z,61.00
2018-03-25T11:17:54.788Z,60.90
2018-03-25T11:20:23.139Z,61.50
2018-03-25T11:22:50.717Z,61.60
2018-03-25T11:25:19.053Z,60.20
2018-03-25T11:27:46.637Z,60.30
2018-03-25T11:30:14.230Z,60.50
2018-03-25T11:32:42.587Z,60.00
2018-03-25T11:35:10.914Z,60.40
2018-03-25T11:37:38.493Z,60.40
2018-03-25T11:40:06.250Z,60.70
2018-03-25T11:42:33.833Z,59.90
2018-03-25T11:45:01.424Z,59.90
2018-03-25T11:47:29.836Z,58.50
2018-03-25T11:49:57.369Z,58.50
2018-03-25T11:52:25.757Z,59.00
2018-03-25T11:54:54.093Z,58.90
2018-03-25T11:57:21.676Z,58.90
2018-03-25T11:59:50.093Z,57.50
2018-03-25T12:02:17.662Z,57.40
2018-03-25T12:04:45.243Z,57.60
2018-03-25T12:07:12.798Z,58.40
2018-03-25T12:09:40.376Z,59.20
2018-03-25T12:12:07.965Z,59.80
2018-03-25T12:14:36.317Z,59.90
2018-03-25T12:17:03.874Z,59.90
2018-03-25T12:19:31.432Z,59.50
2018-03-25T12:21:59.005Z,57.40
2018-03-25T12:24:26.590Z,55.80
2018-03-25T12:26:54.942Z,55.60
2018-03-25T12:29:22.502Z,55.60
2018-03-25T12:31:50.859Z,55.70
2018-03-25T12:34:18.434Z,55.70
2018-03-25T12:36:45.997Z,55.70
2018-03-25T12:39:13.578Z,55.20
2018-03-25T12:41:41.924Z,56.60
2018-03-25T12:44:09.691Z,56.50
2018-03-25T12:46:37.366Z,56.10
2018-03-25T12:49:04.941Z,57.10
2018-03-25T12:51:33.268Z,57.40
2018-03-25T12:54:01.006Z,57.40
2018-03-25T12:56:28.608Z,56.70
2018-03-25T12:58:56.172Z,55.20
2018-03-25T13:01:23.765Z,55.30
2018-03-25T13:03:52.082Z,54.70
2018-03-25T13:06:19.671Z,54.70
2018-03-25T13:08:47.264Z,54.70
2018-03-25T13:11:15.609Z,55.50
2018-03-25T13:13:43.172Z,55.50
2018-03-25T13:16:10.768Z,56.10
2018-03-25T13:18:39.084Z,55.10
2018-03-25T13:21:06.921Z,55.10
2018-03-25T13:23:34.479Z,53.90
2018-03-25T13:26:02.047Z,54.10
2018-03-25T13:28:29.610Z,54.50
2018-03-25T13:30:57.196Z,53.40
2018-03-25T13:33:24.745Z,54.60
2018-03-25T13:35:52.356Z,54.30
2018-03-25T13:38:19.962Z,55.50
2018-03-25T13:40:47.541Z,54.90
2018-03-25T13:43:15.111Z,55.90
2018-03-25T13:45:42.681Z,55.60
2018-03-25T13:48:11.797Z,53.60
2018-03-25T13:50:40.217Z,53.50
2018-03-25T13:53:07.805Z,53.40
2018-03-25T13:55:35.385Z,55.30
2018-03-25T13:58:02.997Z,55.30
2018-03-25T14:00:30.598Z,55.60
2018-03-25T14:02:58.158Z,55.30
2018-03-25T14:05:25.711Z,56.20
2018-03-25T14:07:53.287Z,54.50
2018-03-25T14:10:20.875Z,54.30
2018-03-25T14:12:49.216Z,54.80
2018-03-25T14:15:16.784Z,54.80
2018-03-25T14:17:44.377Z,53.40
2018-03-25T14:20:11.939Z,53.70
2018-03-25T14:22:39.672Z,53.70
2018-03-25T14:25:07.246Z,51.40
2018-03-25T14:27:35.579Z,52.30
2018-03-25T14:30:03.212Z,52.70
2018-03-25T14:32:31.517Z,52.50
2018-03-25T14:34:59.086Z,51.70
2018-03-25T14:37:26.644Z,51.90
2018-03-25T14:39:54.266Z,52.40
2018-03-25T14:42:21.852Z,52.60
2018-03-25T14:44:49.473Z,51.90
2018-03-25T14:47:17.790Z,51.50
2018-03-25T14:49:45.486Z,51.60
2018-03-25T14:52:13.131Z,51.10
2018-03-25T14:54:40.926Z,50.80
2018-03-25T14:57:08.532Z,51.20
2018-03-25T14:59:36.085Z,51.00
2018-03-25T15:02:03.725Z,53.00
2018-03-25T15:04:32.101Z,50.60
2018-03-25T15:07:00.756Z,50.60
2018-03-25T15:09:28.601Z,51.40
2018-03-25T15:11:56.199Z,51.90
2018-03-25T15:14:23.753Z,52.60
2018-03-25T15:16:51.348Z,51.90
2018-03-25T15:19:18.913Z,52.40
2018-03-25T15:21:46.485Z,52.30
2018-03-25T15:24:14.038Z,53.20
2018-03-25T15:26:41.730Z,53.80
2018-03-25T15:29:09.291Z,53.80
2018-03-25T15:31:36.917Z,52.90
2018-03-25T15:34:04.490Z,53.00
2018-03-25T15:36:32.074Z,52.90
2018-03-25T15:38:59.653Z,53.70
2018-03-25T15:41:27.217Z,52.60
2018-03-25T15:43:54.788Z,53.90
2018-03-25T15:46:23.333Z,54.00
2018-03-25T15:48:50.953Z,54.00
2018-03-25T15:51:18.517Z,55.10
2018-03-25T15:53:46.096Z,54.00
2018-03-25T15:56:13.665Z,55.10
2018-03-25T15:58:41.237Z,54.80
2018-03-25T16:01:09.649Z,55.90
2018-03-25T16:03:39.033Z,55.40
2018-03-25T16:06:06.671Z,56.80
2018-03-25T16:08:34.237Z,57.10
2018-03-25T16:11:01.806Z,56.90
2018-03-25T16:13:29.549Z,57.90
2018-03-25T16:15:57.182Z,58.10
2018-03-25T16:18:24.770Z,58.70
2018-03-25T16:20:52.450Z,58.80
2018-03-25T16:23:20.024Z,59.10
2018-03-25T16:25:48.753Z,59.60
2018-03-25T16:28:16.339Z,60.90
2018-03-25T16:30:43.916Z,60.50
2018-03-25T16:33:11.492Z,61.00
2018-03-25T16:35:39.049Z,61.60
2018-03-25T16:38:06.644Z,61.90
2018-03-25T16:40:34.991Z,62.60
2018-03-25T16:43:05.403Z,63.30
2018-03-25T16:45:33.020Z,62.70
2018-03-25T16:48:01.336Z,62.40
2018-03-25T16:50:28.927Z,62.30
2018-03-25T16:52:56.509Z,62.50
2018-03-25T16:55:24.833Z,64.50
2018-03-25T16:57:52.408Z,64.40
2018-03-25T17:00:19.985Z,64.10
2018-03-25T17:02:47.556Z,64.90
2018-03-25T17:05:15.113Z,65.50
2018-03-25T17:07:42.690Z,66.00
2018-03-25T17:10:11.017Z,65.50
2018-03-25T17:12:38.589Z,65.50
2018-03-25T17:15:06.180Z,65.00
2018-03-25T17:17:34.527Z,65.50
2018-03-25T17:20:02.054Z,65.50
2018-03-25T17:22:29.629Z,65.90
2018-03-25T17:24:57.210Z,66.70
2018-03-25T17:27:24.773Z,67.40
2018-03-25T17:29:52.350Z,66.80
2018-03-25T17:32:19.913Z,67.40
2018-03-25T17:34:47.486Z,68.00
2018-03-25T17:37:15.811Z,67.90
2018-03-25T17:39:43.381Z,68.00
2018-03-25T17:42:10.949Z,68.70
2018-03-25T17:44:38.560Z,68.30
2018-03-25T17:47:06.131Z,68.70
2018-03-25T17:49:33.677Z,68.60
2018-03-25T17:52:01.252Z,68.80
2018-03-25T17:54:28.916Z,68.90
2018-03-25T17:56:56.490Z,69.10
2018-03-25T17:59:24.050Z,69.20
2018-03-25T18:01:51.653Z,69.40
2018-03-25T18:04:19.273Z,69.30
2018-03-25T18:06:46.868Z,70.10
2018-03-25T18:09:15.187Z,69.70
2018-03-25T18:11:42.789Z,69.90
2018-03-25T18:14:10.337Z,70.30
2018-03-25T18:16:37.896Z,70.40
2018-03-25T18:19:05.478Z,70.60
2018-03-25T18:21:33.049Z,70.50
2018-03-25T18:24:00.722Z,71.10
2018-03-25T18:26:29.218Z,71.00
2018-03-25T18:28:57.572Z,71.40
2018-03-25T18:31:25.186Z,71.30
2018-03-25T18:33:53.036Z,71.70
2018-03-25T18:36:20.623Z,71.60
2018-03-25T18:38:48.268Z,71.70
2018-03-25T18:41:15.884Z,71.60
2018-03-25T18:43:43.456Z,71.20
2018-03-25T18:46:11.808Z,71.90
2018-03-25T18:48:39.389Z,71.80
2018-03-25T18:51:07.737Z,72.70
2018-03-25T18:53:35.295Z,71.90
2018-03-25T18:56:02.962Z,71.90
2018-03-25T18:58:30.545Z,71.60
2018-03-25T19:00:58.137Z,71.80
2018-03-25T19:03:26.470Z,72.20
2018-03-25T19:05:54.053Z,72.20
2018-03-25T19:08:22.369Z,72.30
2018-03-25T19:10:49.947Z,72.20
2018-03-25T19:13:17.526Z,72.60
2018-03-25T19:15:45.137Z,72.60
2018-03-25T19:18:12.693Z,72.60
2018-03-25T19:20:40.313Z,72.90
2018-03-25T19:23:07.966Z,72.80
2018-03-25T19:25:35.538Z,72.80
2018-03-25T19:28:03.102Z,72.90
2018-03-25T19:30:30.694Z,73.20
2018-03-25T19:32:58.258Z,73.40
2018-03-25T19:35:25.809Z,73.90
2018-03-25T19:37:53.386Z,73.60
2018-03-25T19:40:20.987Z,73.70
2018-03-25T19:42:48.574Z,74.00
2018-03-25T19:45:16.913Z,75.20
2018-03-25T19:47:44.544Z,74.30
2018-03-25T19:50:12.107Z,74.20
2018-03-25T19:52:39.653Z,74.50
2018-03-25T19:55:07.265Z,74.60
2018-03-25T19:57:34.858Z,74.30
2018-03-25T20:00:02.472Z,74.60
2018-03-25T20:02:30.093Z,75.00
2018-03-25T20:04:58.453Z,75.30
2018-03-25T20:07:26.825Z,76.40
2018-03-25T20:09:54.373Z,75.60
2018-03-25T20:12:21.946Z,76.60
2018-03-25T20:14:49.610Z,76.00
2018-03-25T20:17:17.451Z,76.30
2018-03-25T20:19:45.021Z,77.20
2018-03-25T20:22:13.464Z,76.60
2018-03-25T20:24:40.984Z,76.70
2018-03-25T20:27:08.625Z,76.60
2018-03-25T20:29:36.207Z,76.60
2018-03-25T20:32:04.569Z,76.50
2018-03-25T20:34:32.181Z,76.50
2018-03-25T20:36:59.750Z,76.80
2018-03-25T20:39:27.308Z,76.80
2018-03-25T20:41:54.908Z,77.20
2018-03-25T20:44:22.494Z,77.40
2018-03-25T20:46:50.918Z,77.60
2018-03-25T20:49:18.476Z,77.60
2018-03-25T20:51:46.053Z,77.70
2018-03-25T20:54:13.640Z,78.20
2018-03-25T20:56:41.249Z,80.20
2018-03-25T20:59:08.908Z,80.20
2018-03-25T21:01:36.490Z,79.80
2018-03-25T21:04:04.042Z,79.80
2018-03-25T21:06:31.687Z,79.60
2018-03-25T21:08:59.238Z,79.40
2018-03-25T21:11:26.813Z,77.90
2018-03-25T21:13:54.384Z,77.60
2018-03-25T21:16:21.962Z,77.60
2018-03-25T21:18:49.526Z,77.60
2018-03-25T21:21:17.879Z,78.20
2018-03-25T21:23:45.441Z,77.60
2018-03-25T21:26:13.022Z,77.30
2018-03-25T21:28:40.570Z,77.20
2018-03-25T21:31:08.542Z,77.00
2018-03-25T21:33:36.077Z,77.10
2018-03-25T21:36:03.655Z,76.80
2018-03-25T21:38:31.208Z,76.80
2018-03-25T21:40:58.960Z,76.90
2018-03-25T21:43:26.530Z,77.00
2018-03-25T21:45:54.082Z,76.90
2018-03-25T21:48:21.701Z,76.90
2018-03-25T21:50:50.029Z,76.90
2018-03-25T21:53:17.617Z,76.80
2018-03-25T21:55:45.195Z,77.10
2018-03-25T21:58:12.765Z,76.80
2018-03-25T22:00:41.090Z,77.10
2018-03-25T22:03:08.686Z,77.20
2018-03-25T22:05:36.243Z,77.60
2018-03-25T22:08:03.833Z,77.60
2018-03-25T22:10:32.345Z,78.00
2018-03-25T22:12:59.953Z,77.90
2018-03-25T22:15:27.519Z,78.20
2018-03-25T22:17:55.089Z,80.50
2018-03-25T22:20:23.424Z,78.40
2018-03-25T22:22:50.989Z,78.40
2018-03-25T22:25:18.549Z,78.60
2018-03-25T22:27:46.126Z,79.70
2018-03-25T22:30:13.702Z,79.40
2018-03-25T22:32:41.240Z,79.30
2018-03-25T22:35:08.848Z,78.70
2018-03-25T22:37:36.405Z,78.10
2018-03-25T22:40:03.965Z,78.10
2018-03-25T22:42:31.518Z,79.60
2018-03-25T22:44:59.104Z,79.50
2018-03-25T22:47:26.644Z,79.80
2018-03-25T22:49:54.195Z,79.50
2018-03-25T22:52:22.673Z,79.20
2018-03-25T22:54:51.010Z,79.70
2018-03-25T22:57:18.773Z,79.70
2018-03-25T22:59:46.330Z,79.40
2018-03-25T23:02:14.001Z,79.70
2018-03-25T23:04:41.559Z,79.30
2018-03-25T23:07:09.135Z,79.70
2018-03-25T23:09:36.690Z,79.80
2018-03-25T23:12:04.284Z,79.70
2018-03-25T23:14:32.609Z,79.70
2018-03-25T23:17:00.168Z,79.60
2018-03-25T23:19:27.758Z,79.90
2018-03-25T23:21:55.330Z,79.70
2018-03-25T23:24:23.745Z,81.10
2018-03-25T23:26:51.301Z,81.10
2018-03-25T23:29:18.861Z,81.50
2018-03-25T23:31:46.418Z,81.60
2018-03-25T23:34:13.987Z,81.60
2018-03-25T23:36:41.549Z,82.00
2018-03-25T23:39:09.992Z,81.80
2018-03-25T23:41:38.298Z,82.40
2018-03-25T23:44:05.921Z,82.30
2018-03-25T23:46:34.251Z,84.10
2018-03-25T23:49:01.816Z,83.30
2018-03-25T23:51:29.376Z,84.10
2018-03-25T23:53:56.943Z,84.80
2018-03-25T23:56:24.490Z,85.40
2018-03-25T23:58:52.066Z,85.90
